Terminal Aerodrome Forecast
Issued by NWS

Home | Current Version | Previous Version | Text Only | Print | Product List | Glossary Off
Versions: 1 2 3 4 5 6 7 8 9 10 11 12

535
FTUS43 KICT 051120
TAFCNU
TAF
KCNU 051120Z 0512/0612 05005KT P6SM SCT250
     FM051700 18004KT P6SM BKN200
     FM052100 22008KT P6SM BKN250
     FM060800 28006KT P6SM BKN100=

USA.gov is the U.S. government's official web portal to all federal, state and local government web resources and services.